Mandurah, Australia
Current Conditions -  °F | °C
As of 1:30 PM on Saturday 25 Oct 2014 (Local Time) from YPJT Reporting Station
Scattered Clouds Scattered Clouds  
Wind Chill: 73°   Ceiling: Unl
Heat Index: 73°   Visibility: 6mi
Dew Point: 52°   Wind: 15mph
Humidity: 47%   Direction: 270°W
Pressure: 30.06"   Gusts: NA
Location:  32.53°S, 115.73°E
Report Text: YPJT 250530Z AUTO 27013KT 9999 // SCT034 23/11 Q1018
Loading
Personal Weather Stations






























Interactive Weather Map
Tropical Storm Tracking
New forecast layout! Learn more

10-Day Weather Forecast

Advertisements
Track Severe Weather on mobile